Time;durP1;ratioP1;P1;durP2;ratioP2;P2;SDS_P1;SDS_P2;PMS_P1;PMS_P2;Temp;Humidity;BMP_temperature;BMP_pressure;BME280_temperature;BME280_humidity;BME280_pressure;Samples;Min_cycle;Max_cycle;Signal;HPM_P1;HPM_P2
2021/11/02 00:01:11;;;;;;;1999.90;999.90;;;;;;;5.03;58.27;99698.22;4935152;28;97009;-75
2021/11/02 00:03:39;;;;;;;1999.90;999.90;;;;;;;5.04;58.46;99690.38;4936023;28;98111;-75
2021/11/02 00:06:09;;;;;;;1999.90;999.90;;;;;;;5.04;58.39;99682.47;4946923;28;97850;-74
2021/11/02 00:08:37;;;;;;;1999.90;999.90;;;;;;;5.04;58.31;99679.81;4932861;28;98196;-76
2021/11/02 00:11:05;;;;;;;1999.90;999.90;;;;;;;5.06;58.24;99679.84;4932120;28;98495;-74
2021/11/02 00:13:39;;;;;;;1999.90;999.90;;;;;;;5.06;58.23;99679.84;4925363;28;98449;-74
2021/11/02 00:16:17;;;;;;;1999.90;999.90;;;;;;;5.03;58.20;99678.03;4930962;28;96881;-74
2021/11/02 00:18:51;;;;;;;1999.90;999.90;;;;;;;5.04;58.48;99678.94;4920582;28;96888;-74
2021/11/02 00:21:22;;;;;;;1999.90;999.90;;;;;;;5.02;58.43;99675.31;4945981;28;96938;-74
2021/11/02 00:23:57;;;;;;;1999.90;999.90;;;;;;;5.02;58.33;99677.97;4936739;28;99592;-74
2021/11/02 00:26:25;;;;;;;1999.90;999.90;;;;;;;5.03;58.13;99677.13;4938450;28;99347;-74
2021/11/02 00:28:53;;;;;;;1999.90;999.90;;;;;;;5.00;58.29;99670.00;4930537;28;97616;-74
2021/11/02 00:31:21;;;;;;;1999.90;999.90;;;;;;;5.00;58.45;99675.28;4934840;28;99093;-74
2021/11/02 00:33:49;;;;;;;1999.90;999.90;;;;;;;5.00;58.27;99671.75;4922093;28;97895;-73
2021/11/02 00:36:17;;;;;;;1999.90;999.90;;;;;;;5.00;58.51;99670.00;4932581;28;99133;-74
2021/11/02 00:38:47;;;;;;;1999.90;999.90;;;;;;;4.99;58.51;99669.97;4941783;28;96896;-74
2021/11/02 00:41:15;;;;;;;1999.90;999.90;;;;;;;4.98;58.44;99663.81;4934416;28;98377;-74
2021/11/02 00:43:46;;;;;;;1999.90;999.90;;;;;;;4.99;58.16;99669.97;4946013;28;100667;-74
2021/11/02 00:46:14;;;;;;;1999.90;999.90;;;;;;;4.98;58.44;99665.53;4929043;28;99266;-73
2021/11/02 00:48:43;;;;;;;1999.90;999.90;;;;;;;4.96;58.19;99661.97;4933327;28;97107;-73
2021/11/02 00:51:13;;;;;;;1999.90;999.90;;;;;;;4.96;58.49;99670.78;4950173;28;97212;-73
2021/11/02 00:53:40;;;;;;;1999.90;999.90;;;;;;;4.95;58.41;99657.56;4948240;28;98452;-74
2021/11/02 00:56:10;;;;;;;1999.90;999.90;;;;;;;4.95;58.24;99663.75;4926070;28;100216;-74
2021/11/02 00:58:38;;;;;;;1999.90;999.90;;;;;;;4.94;58.22;99661.03;4936517;28;96814;-73
2021/11/02 01:01:05;;;;;;;1999.90;999.90;;;;;;;4.94;58.34;99661.03;4929307;28;96838;-74
2021/11/02 01:03:36;;;;;;;1999.90;999.90;;;;;;;4.93;58.11;99661.91;4951874;28;99006;-74
2021/11/02 01:06:05;;;;;;;1999.90;999.90;;;;;;;4.90;58.43;99659.19;4944634;28;97768;-74
2021/11/02 01:08:32;;;;;;;1999.90;999.90;;;;;;;4.90;58.45;99660.06;4935634;28;96584;-74
2021/11/02 01:11:00;;;;;;;1999.90;999.90;;;;;;;4.88;58.50;99656.50;4930784;28;97312;-73
2021/11/02 01:13:30;;;;;;;1999.90;999.90;;;;;;;4.86;58.33;99655.59;4933569;28;99196;-74
2021/11/02 01:16:00;;;;;;;1999.90;999.90;;;;;;;4.86;58.45;99658.22;4950285;28;100567;-75
2021/11/02 01:18:28;;;;;;;1999.90;999.90;;;;;;;4.84;58.54;99653.75;4921675;28;96904;-74
2021/11/02 01:20:58;;;;;;;1999.90;999.90;;;;;;;4.82;58.66;99653.72;4930063;28;96914;-74
2021/11/02 01:23:26;;;;;;;1999.90;999.90;;;;;;;4.82;58.55;99650.19;4935735;28;99296;-74
2021/11/02 01:25:54;;;;;;;1999.90;999.90;;;;;;;4.81;58.59;99653.69;4934382;28;98009;-74
2021/11/02 01:28:22;;;;;;;1999.90;999.90;;;;;;;4.80;58.65;99657.16;4928329;28;98470;-75
2021/11/02 01:30:52;;;;;;;1999.90;999.90;;;;;;;4.79;58.60;99655.41;4930164;28;97091;-74
2021/11/02 01:33:19;;;;;;;1999.90;999.90;;;;;;;4.78;58.47;99653.59;4919440;28;98658;-74
2021/11/02 01:35:51;;;;;;;1999.90;999.90;;;;;;;4.75;58.63;99658.78;4937812;28;98127;-73
2021/11/02 01:38:23;;;;;;;1999.90;999.90;;;;;;;4.73;58.57;99665.75;4918348;28;97102;-74
2021/11/02 01:40:54;;;;;;;1999.90;999.90;;;;;;;4.70;58.57;99660.44;4944765;28;97919;-75
2021/11/02 01:43:23;;;;;;;1999.90;999.90;;;;;;;4.70;58.62;99661.28;4923738;28;104191;-74
2021/11/02 01:45:52;;;;;;;1999.90;999.90;;;;;;;4.68;58.60;99652.44;4924722;28;97542;-74
2021/11/02 01:48:23;;;;;;;1999.90;999.90;;;;;;;4.67;58.37;99657.69;4942860;28;98059;-73
2021/11/02 01:50:53;;;;;;;1999.90;999.90;;;;;;;4.63;58.67;99650.53;4941519;28;96941;-73
2021/11/02 01:53:21;;;;;;;1999.90;999.90;;;;;;;4.60;58.71;99658.38;4933456;28;98703;-73
2021/11/02 01:55:52;;;;;;;1999.90;999.90;;;;;;;4.57;58.65;99651.28;4942518;28;98123;-75
2021/11/02 01:58:20;;;;;;;1999.90;999.90;;;;;;;4.56;58.78;99653.88;4936026;28;96667;-73
2021/11/02 02:00:56;;;;;;;1999.90;999.90;;;;;;;4.53;58.73;99651.16;4933648;28;98358;-74
2021/11/02 02:03:31;;;;;;;1999.90;999.90;;;;;;;4.51;58.97;99653.75;4926082;28;98409;-74
2021/11/02 02:06:12;;;;;;;1999.90;999.90;;;;;;;4.49;59.10;99650.19;4939960;28;100129;-73
2021/11/02 02:08:47;;;;;;;1999.90;999.90;;;;;;;4.49;58.86;99657.19;4929517;28;97094;-74
2021/11/02 02:11:21;;;;;;;1999.90;999.90;;;;;;;4.45;58.88;99653.59;4926041;28;97487;-75
2021/11/02 02:13:59;;;;;;;1999.90;999.90;;;;;;;4.44;58.83;99657.09;4941778;28;98600;-73
2021/11/02 02:16:34;;;;;;;1999.90;999.90;;;;;;;4.42;59.02;99649.97;4920043;28;98107;-74
2021/11/02 02:19:14;;;;;;;1999.90;999.90;;;;;;;4.41;59.09;99649.06;4941920;28;97980;-73
2021/11/02 02:21:50;;;;;;;1999.90;999.90;;;;;;;4.41;58.96;99649.06;4920647;28;97020;-73
2021/11/02 02:24:34;;;;;;;1999.90;999.90;;;;;;;4.40;58.92;99651.69;4938633;28;97651;-73
2021/11/02 02:27:24;;;;;;;1999.90;999.90;;;;;;;4.39;58.75;99652.53;4919767;28;98941;-74
2021/11/02 02:29:53;;;;;;;1999.90;999.90;;;;;;;4.40;58.93;99649.03;4929457;28;97941;-73
2021/11/02 02:32:24;;;;;;;1999.90;999.90;;;;;;;4.40;58.89;99646.41;4921177;28;99208;-74
2021/11/02 02:34:54;;;;;;;1999.90;999.90;;;;;;;4.41;58.86;99648.22;4936766;28;97888;-73
2021/11/02 02:37:23;;;;;;;1999.90;999.90;;;;;;;4.39;58.82;99655.19;4930554;28;97875;-73
2021/11/02 02:39:57;;;;;;;1999.90;999.90;;;;;;;4.38;59.01;99646.38;4945393;28;96877;-73
2021/11/02 02:42:27;;;;;;;1999.90;999.90;;;;;;;4.38;59.07;99646.38;4934570;28;96986;-72
2021/11/02 02:44:56;;;;;;;1999.90;999.90;;;;;;;4.37;58.98;99649.84;4935731;28;97855;-73
2021/11/02 02:47:26;;;;;;;1999.90;999.90;;;;;;;4.37;59.01;99641.94;4941273;28;97760;-74
2021/11/02 02:49:55;;;;;;;1999.90;999.90;;;;;;;4.37;59.07;99646.34;4954160;28;97082;-74
2021/11/02 02:52:24;;;;;;;1999.90;999.90;;;;;;;4.35;58.93;99648.03;4926531;28;98140;-74
2021/11/02 02:54:54;;;;;;;1999.90;999.90;;;;;;;4.34;59.16;99659.41;4928040;28;99505;-74
2021/11/02 02:57:24;;;;;;;1999.90;999.90;;;;;;;4.35;58.95;99650.66;4928794;28;98907;-74
2021/11/02 02:59:53;;;;;;;1999.90;999.90;;;;;;;4.35;58.93;99645.41;4925185;28;97305;-74
2021/11/02 03:02:24;;;;;;;1999.90;999.90;;;;;;;4.34;59.04;99648.88;4926930;28;96896;-74
2021/11/02 03:04:54;;;;;;;1999.90;999.90;;;;;;;4.34;59.09;99648.88;4927641;28;101311;-74
2021/11/02 03:07:26;;;;;;;1999.90;999.90;;;;;;;4.32;59.18;99650.59;4920563;28;98488;-74
2021/11/02 03:09:58;;;;;;;1999.90;999.90;;;;;;;4.33;59.13;99652.34;4931481;28;97147;-74
2021/11/02 03:12:29;;;;;;;1999.90;999.90;;;;;;;4.32;59.13;99647.97;4924268;28;98073;-74
2021/11/02 03:15:13;;;;;;;1999.90;999.90;;;;;;;4.32;59.03;99642.69;4933595;28;100638;-74
2021/11/02 03:17:49;;;;;;;1999.90;999.90;;;;;;;4.31;59.11;99643.53;4943190;28;97546;-73
2021/11/02 03:48:32;;;;;;;1999.90;999.90;;;;;;;4.26;59.30;99627.63;4925240;28;98785;-72
2021/11/02 03:56:48;;;;;;;1999.90;999.90;;;;;;;4.26;59.35;99618.81;4922517;28;98177;-72
2021/11/02 03:59:35;;;;;;;1999.90;999.90;;;;;;;4.24;59.50;99616.16;4933529;28;96981;-72
2021/11/02 04:47:14;;;;;;;1999.90;999.90;;;;;;;3.96;59.69;99608.31;4946532;28;97863;-74
2021/11/02 05:49:20;;;;;;;1999.90;999.90;;;;;;;3.65;59.42;99624.94;4915699;28;97213;-74
2021/11/02 05:57:33;;;;;;;1999.90;999.90;;;;;;;3.66;59.80;99628.47;4931606;28;97105;-74
2021/11/02 06:00:23;;;;;;;1999.90;999.90;;;;;;;3.65;59.48;99637.19;4940775;28;97071;-76
2021/11/02 06:05:45;;;;;;;1999.90;999.90;;;;;;;3.63;59.64;99629.22;4948747;28;99359;-74
2021/11/02 06:11:27;;;;;;;1999.90;999.90;;;;;;;3.62;59.76;99631.81;4939219;28;97645;-74
2021/11/02 06:28:12;;;;;;;1999.90;999.90;;;;;;;3.45;60.14;99636.56;4939712;28;98073;-74
2021/11/02 06:30:47;;;;;;;1999.90;999.90;;;;;;;3.46;59.62;99629.56;4941634;28;96894;-75
2021/11/02 06:33:26;;;;;;;1999.90;999.90;;;;;;;3.43;59.94;99635.59;4940584;28;97340;-75
2021/11/02 06:36:05;;;;;;;1999.90;999.90;;;;;;;3.45;59.91;99641.81;4926260;28;97869;-74
2021/11/02 06:44:26;;;;;;;1999.90;999.90;;;;;;;3.48;59.71;99641.88;4938266;28;97443;-76
2021/11/02 07:15:29;;;;;;;1999.90;999.90;;;;;;;3.42;59.89;99659.22;4933362;28;99140;-75
2021/11/02 07:18:04;;;;;;;1999.90;999.90;;;;;;;3.43;60.23;99655.75;4934204;28;97621;-74
2021/11/02 07:20:40;;;;;;;1999.90;999.90;;;;;;;3.45;59.97;99669.81;4936618;28;98665;-74
2021/11/02 07:23:22;;;;;;;1999.90;999.90;;;;;;;3.45;59.95;99670.72;4932681;28;97891;-77
2021/11/02 07:26:01;;;;;;;1999.90;999.90;;;;;;;3.46;59.57;99667.25;4931149;28;98210;-74
2021/11/02 07:29:00;;;;;;;1999.90;999.90;;;;;;;3.44;60.21;99666.28;4932582;28;97158;-77
2021/11/02 08:47:24;;;;;;;1999.90;999.90;;;;;;;4.15;59.15;99650.13;4934833;28;97728;-74
2021/11/02 08:49:52;;;;;;;1999.90;999.90;;;;;;;4.17;59.20;99648.41;4932985;28;99167;-74
2021/11/02 08:52:23;;;;;;;1999.90;999.90;;;;;;;4.21;58.92;99650.25;4937575;28;97668;-74
2021/11/02 08:54:55;;;;;;;1999.90;999.90;;;;;;;4.26;58.99;99647.78;4953362;28;97742;-75
2021/11/02 08:57:24;;;;;;;1999.90;999.90;;;;;;;4.29;58.99;99648.75;4923148;28;97747;-74
2021/11/02 08:59:52;;;;;;;1999.90;999.90;;;;;;;4.34;58.76;99643.59;4932382;28;97619;-73
2021/11/02 09:02:27;;;;;;;1999.90;999.90;;;;;;;4.40;58.82;99646.41;4932391;28;99110;-73
2021/11/02 09:05:04;;;;;;;1999.90;999.90;;;;;;;4.44;58.70;99649.19;4934932;28;96931;-75
2021/11/02 09:07:34;;;;;;;1999.90;999.90;;;;;;;4.50;58.64;99645.81;4932953;28;97399;-73
2021/11/02 09:10:07;;;;;;;1999.90;999.90;;;;;;;4.56;58.53;99648.59;4945723;28;99667;-73
2021/11/02 09:12:35;;;;;;;1999.90;999.90;;;;;;;4.61;58.27;99644.38;4940719;28;97715;-73
2021/11/02 09:15:05;;;;;;;1999.90;999.90;;;;;;;4.69;58.45;99642.81;4937549;28;97582;-73
2021/11/02 09:17:34;;;;;;;1999.90;999.90;;;;;;;4.73;58.26;99649.94;4934349;28;96851;-73
2021/11/02 09:20:04;;;;;;;1999.90;999.90;;;;;;;4.78;58.29;99645.69;4923682;28;98937;-75
2021/11/02 09:22:33;;;;;;;1999.90;999.90;;;;;;;4.82;58.20;99647.56;4934830;28;99589;-74
2021/11/02 09:25:02;;;;;;;1999.90;999.90;;;;;;;4.86;58.34;99647.69;4932003;28;98623;-73
2021/11/02 09:27:30;;;;;;;1999.90;999.90;;;;;;;4.89;58.63;99647.75;4936435;28;97295;-74
2021/11/02 09:29:58;;;;;;;1999.90;999.90;;;;;;;4.94;58.09;99654.03;4920742;28;97637;-74
2021/11/02 09:32:27;;;;;;;1999.90;999.90;;;;;;;4.97;57.87;99647.97;4936782;28;97800;-73
2021/11/02 09:34:55;;;;;;;1999.90;999.90;;;;;;;5.02;58.10;99648.97;4937624;28;96898;-73
2021/11/02 09:37:27;;;;;;;1999.90;999.90;;;;;;;5.07;57.67;99648.25;4939931;28;97177;-75
2021/11/02 09:39:57;;;;;;;1999.90;999.90;;;;;;;5.10;57.75;99643.03;4934297;28;99234;-74
2021/11/02 09:42:43;;;;;;;1999.90;999.90;;;;;;;5.13;57.60;99643.16;4943823;28;98670;-72
2021/11/02 09:45:45;;;;;;;1999.90;999.90;;;;;;;5.17;57.42;99646.75;4926326;28;96805;-74
2021/11/02 09:48:38;;;;;;;1999.90;999.90;;;;;;;5.21;57.45;99636.28;4928214;28;97449;-73
2021/11/02 09:51:50;;;;;;;1999.90;999.90;;;;;;;5.24;57.25;99635.50;4928490;28;99238;-74
2021/11/02 09:54:52;;;;;;;1999.90;999.90;;;;;;;5.29;57.00;99644.41;4922682;28;98495;-73
2021/11/02 09:57:52;;;;;;;1999.90;999.90;;;;;;;5.35;57.22;99635.72;4934099;28;96909;-73
2021/11/02 10:00:37;;;;;;;1999.90;999.90;;;;;;;5.42;57.39;99635.91;4915225;28;97552;-73
2021/11/02 10:03:41;;;;;;;1999.90;999.90;;;;;;;5.46;56.80;99635.16;4929540;28;100599;-76
2021/11/02 10:06:29;;;;;;;1999.90;999.90;;;;;;;5.52;57.14;99634.41;4935980;28;97398;-76
2021/11/02 10:09:06;;;;;;;1999.90;999.90;;;;;;;5.56;56.57;99631.84;4932478;28;96962;-75
2021/11/02 10:11:39;;;;;;;1999.90;999.90;;;;;;;5.59;56.83;99634.56;4945045;28;97831;-74
2021/11/02 10:14:20;;;;;;;1999.90;999.90;;;;;;;5.64;56.74;99630.28;4939133;28;97596;-76
2021/11/02 10:17:13;;;;;;;1999.90;999.90;;;;;;;5.66;56.58;99625.94;4942111;28;96885;-73
2021/11/02 10:20:04;;;;;;;1999.90;999.90;;;;;;;5.69;56.77;99626.00;4936863;28;96913;-74
2021/11/02 10:22:58;;;;;;;1999.90;999.90;;;;;;;5.76;56.23;99632.28;4945110;28;96992;-76
2021/11/02 10:25:47;;;;;;;1999.90;999.90;;;;;;;5.79;56.30;99630.63;4939923;28;97595;-74
2021/11/02 10:28:52;;;;;;;1999.90;999.90;;;;;;;5.80;56.19;99629.75;4941895;28;98913;-75
2021/11/02 10:31:28;;;;;;;1999.90;999.90;;;;;;;5.81;55.56;99630.66;4938733;28;97396;-73
2021/11/02 10:34:01;;;;;;;1999.90;999.90;;;;;;;5.81;56.17;99631.53;4941160;28;96983;-74
2021/11/02 10:36:35;;;;;;;1999.90;999.90;;;;;;;5.81;56.12;99628.88;4944515;28;100726;-75
2021/11/02 10:39:22;;;;;;;1999.90;999.90;;;;;;;5.78;55.70;99634.09;4932390;28;99175;-75
2021/11/02 10:42:07;;;;;;;1999.90;999.90;;;;;;;5.79;56.22;99630.63;4944605;28;96864;-73
2021/11/02 10:44:42;;;;;;;1999.90;999.90;;;;;;;5.83;56.22;99635.09;4938096;28;97629;-74
2021/11/02 10:47:18;;;;;;;1999.90;999.90;;;;;;;5.88;56.03;99640.47;4953054;28;97618;-75
2021/11/02 10:50:05;;;;;;;1999.90;999.90;;;;;;;5.92;55.82;99631.78;4929510;28;100726;-75
2021/11/02 10:52:33;;;;;;;1999.90;999.90;;;;;;;5.97;56.06;99632.75;4938270;28;97911;-75
2021/11/02 10:55:23;;;;;;;1999.90;999.90;;;;;;;6.00;56.11;99633.72;4942467;28;98145;-76
2021/11/02 10:58:14;;;;;;;1999.90;999.90;;;;;;;6.07;55.76;99632.97;4940662;28;96895;-75
2021/11/02 11:00:43;;;;;;;1999.90;999.90;;;;;;;6.13;55.83;99632.22;4937310;28;98672;-77
2021/11/02 11:03:11;;;;;;;1999.90;999.90;;;;;;;6.17;55.71;99634.06;4944248;28;97820;-77
2021/11/02 11:05:43;;;;;;;1999.90;999.90;;;;;;;6.13;55.15;99638.41;4940101;28;97693;-76
2021/11/02 11:08:12;;;;;;;1999.90;999.90;;;;;;;6.14;55.78;99642.81;4941343;28;97578;-76
2021/11/02 11:10:39;;;;;;;1999.90;999.90;;;;;;;6.16;55.75;99630.53;4943034;28;98094;-74
2021/11/02 11:13:11;;;;;;;1999.90;999.90;;;;;;;6.17;55.76;99631.41;4943934;28;97173;-76
2021/11/02 11:15:42;;;;;;;1999.90;999.90;;;;;;;6.18;55.72;99633.19;4948558;28;97838;-75
2021/11/02 11:18:11;;;;;;;1999.90;999.90;;;;;;;6.20;55.84;99624.44;4947652;28;99072;-74
2021/11/02 11:20:41;;;;;;;1999.90;999.90;;;;;;;6.23;55.75;99627.13;4947455;28;97688;-76
2021/11/02 11:23:10;;;;;;;1999.90;999.90;;;;;;;6.27;55.31;99629.91;4949391;28;97004;-76
2021/11/02 11:25:44;;;;;;;1999.90;999.90;;;;;;;6.23;54.84;99621.84;4945987;28;97180;-76
2021/11/02 11:28:14;;;;;;;1999.90;999.90;;;;;;;6.25;55.44;99625.41;4949491;28;100312;-74
2021/11/02 11:30:43;;;;;;;1999.90;999.90;;;;;;;6.24;55.51;99613.09;4955221;28;98750;-75
2021/11/02 11:33:12;;;;;;;1999.90;999.90;;;;;;;6.25;55.57;99617.50;4937732;28;96905;-74
2021/11/02 11:35:42;;;;;;;1999.90;999.90;;;;;;;6.27;54.94;99612.28;4948147;28;97473;-74
2021/11/02 11:38:11;;;;;;;1999.90;999.90;;;;;;;6.27;54.81;99607.00;4945630;28;97597;-73
2021/11/02 11:40:40;;;;;;;1999.90;999.90;;;;;;;6.29;55.00;99602.63;4947411;28;99559;-73
2021/11/02 11:43:09;;;;;;;1999.90;999.90;;;;;;;6.33;55.05;99607.13;4938025;28;96752;-72
2021/11/02 11:45:39;;;;;;;1999.90;999.90;;;;;;;6.37;55.30;99608.97;4944314;28;97552;-73
2021/11/02 11:48:08;;;;;;;1999.90;999.90;;;;;;;6.43;55.03;99608.19;4927790;28;99334;-73
2021/11/02 11:50:38;;;;;;;1999.90;999.90;;;;;;;6.43;54.86;99603.81;4918935;28;101584;-71
2021/11/02 11:53:08;;;;;;;1999.90;999.90;;;;;;;6.48;54.88;99601.25;4944469;28;96965;-75
2021/11/02 11:55:39;;;;;;;1999.90;999.90;;;;;;;6.53;54.54;99599.56;4927027;28;97858;-74
2021/11/02 11:58:10;;;;;;;1999.90;999.90;;;;;;;6.57;54.37;99607.59;4933110;28;99231;-73
2021/11/02 12:00:40;;;;;;;1999.90;999.90;;;;;;;6.61;54.34;99597.97;4938347;28;98315;-76
2021/11/02 12:03:24;;;;;;;1999.90;999.90;;;;;;;6.65;53.41;99605.09;4937771;28;97180;-75
2021/11/02 12:05:58;;;;;;;1999.90;999.90;;;;;;;6.68;53.75;99605.13;4939997;28;96788;-74
2021/11/02 12:08:38;;;;;;;1999.90;999.90;;;;;;;6.69;53.54;99604.28;4937310;28;99949;-73
2021/11/02 12:11:06;;;;;;;1999.90;999.90;;;;;;;6.71;53.95;99595.50;4938276;28;97953;-73
2021/11/02 12:13:40;;;;;;;1999.90;999.90;;;;;;;6.69;52.84;99599.00;4934389;28;97570;-74
2021/11/02 12:16:20;;;;;;;1999.90;999.90;;;;;;;6.71;54.06;99599.88;4940169;28;97188;-74
2021/11/02 12:18:56;;;;;;;1999.90;999.90;;;;;;;6.72;53.74;99601.69;4926116;28;100454;-74
2021/11/02 12:21:28;;;;;;;1999.90;999.90;;;;;;;6.76;54.38;99592.97;4934712;28;99805;-74
2021/11/02 12:24:03;;;;;;;1999.90;999.90;;;;;;;6.84;53.82;99588.66;4931688;28;97700;-76
2021/11/02 12:26:38;;;;;;;1999.90;999.90;;;;;;;6.86;52.99;99592.22;4938076;28;97154;-75
2021/11/02 12:29:09;;;;;;;1999.90;999.90;;;;;;;6.90;53.77;99584.41;4937218;28;99513;-74
2021/11/02 12:31:37;;;;;;;1999.90;999.90;;;;;;;6.96;53.72;99580.97;4938178;28;100579;-75
2021/11/02 12:34:12;;;;;;;1999.90;999.90;;;;;;;7.01;53.63;99584.56;4936877;28;97184;-74
2021/11/02 12:36:47;;;;;;;1999.90;999.90;;;;;;;7.04;53.47;99579.31;4917218;28;97435;-74
2021/11/02 12:39:20;;;;;;;1999.90;999.90;;;;;;;7.07;53.45;99577.59;4916369;28;99192;-73
2021/11/02 12:41:53;;;;;;;1999.90;999.90;;;;;;;7.10;53.21;99579.41;4921093;28;97586;-74
2021/11/02 12:44:25;;;;;;;1999.90;999.90;;;;;;;7.14;52.98;99583.91;4938723;28;96717;-78
2021/11/02 12:46:53;;;;;;;1999.90;999.90;;;;;;;7.19;53.24;99584.84;4937410;28;96938;-74
2021/11/02 12:49:29;;;;;;;1999.90;999.90;;;;;;;7.19;53.19;99583.09;4915527;28;99905;-73
2021/11/02 12:52:03;;;;;;;1999.90;999.90;;;;;;;7.24;53.10;99577.88;4935605;28;99777;-73
2021/11/02 12:54:34;;;;;;;1999.90;999.90;;;;;;;7.28;52.73;99579.69;4935608;28;97507;-76
2021/11/02 12:57:05;;;;;;;1999.90;999.90;;;;;;;7.33;52.78;99575.34;4943662;28;97308;-74
2021/11/02 12:59:38;;;;;;;1999.90;999.90;;;;;;;7.36;52.92;99580.72;4931865;28;97711;-74
2021/11/02 13:02:20;;;;;;;1999.90;999.90;;;;;;;7.37;52.71;99578.94;4936568;28;97094;-75
2021/11/02 13:04:59;;;;;;;1999.90;999.90;;;;;;;7.39;52.55;99578.09;4944997;28;97145;-75
2021/11/02 13:07:28;;;;;;;1999.90;999.90;;;;;;;7.40;52.90;99574.56;4931432;28;96798;-75
2021/11/02 13:09:58;;;;;;;1999.90;999.90;;;;;;;7.41;52.98;99575.50;4943594;28;100256;-74
2021/11/02 13:12:27;;;;;;;1999.90;999.90;;;;;;;7.43;52.88;99577.31;4934649;28;97729;-74
2021/11/02 13:15:03;;;;;;;1999.90;999.90;;;;;;;7.43;52.47;99569.38;4951957;28;97425;-74
2021/11/02 13:17:45;;;;;;;1999.90;999.90;;;;;;;7.43;52.51;99574.69;4930671;28;97415;-74
2021/11/02 13:20:28;;;;;;;1999.90;999.90;;;;;;;7.41;52.55;99578.16;4937215;28;96884;-75
2021/11/02 13:22:57;;;;;;;1999.90;999.90;;;;;;;7.42;52.78;99572.00;4944982;28;98499;-74
2021/11/02 13:25:37;;;;;;;1999.90;999.90;;;;;;;7.40;52.45;99569.28;4932404;28;101355;-74
2021/11/02 13:28:05;;;;;;;1999.90;999.90;;;;;;;7.41;52.44;99578.16;4932667;28;97780;-74
2021/11/02 13:30:35;;;;;;;1999.90;999.90;;;;;;;7.40;52.63;99577.22;4933885;28;101261;-74
2021/11/02 13:33:12;;;;;;;1999.90;999.90;;;;;;;7.37;52.40;99577.19;4925874;28;102213;-75
2021/11/02 13:35:47;;;;;;;1999.90;999.90;;;;;;;7.39;52.57;99577.22;4932442;28;98570;-74
2021/11/02 13:38:35;;;;;;;1999.90;999.90;;;;;;;7.37;51.43;99585.13;4939301;28;97163;-74
2021/11/02 13:41:10;;;;;;;1999.90;999.90;;;;;;;7.38;52.62;99578.09;4943499;28;99635;-75
2021/11/02 13:43:39;;;;;;;1999.90;999.90;;;;;;;7.36;52.55;99583.38;4933006;28;98998;-73
2021/11/02 13:46:09;;;;;;;1999.90;999.90;;;;;;;7.34;52.69;99584.19;4937963;28;96889;-75
2021/11/02 13:48:37;;;;;;;1999.90;999.90;;;;;;;7.34;52.73;99585.09;4933719;28;98203;-75
2021/11/02 13:51:07;;;;;;;1999.90;999.90;;;;;;;7.35;52.83;99585.97;4936813;28;97667;-75
2021/11/02 13:53:35;;;;;;;1999.90;999.90;;;;;;;7.35;52.31;99580.66;4935347;28;99972;-74
2021/11/02 13:56:07;;;;;;;1999.90;999.90;;;;;;;7.34;52.60;99579.81;4932395;28;97195;-74
2021/11/02 13:58:36;;;;;;;1999.90;999.90;;;;;;;7.33;52.68;99580.66;4935960;28;98097;-74
2021/11/02 14:01:07;;;;;;;1999.90;999.90;;;;;;;7.30;52.52;99585.91;4935013;28;99300;-74
2021/11/02 14:03:39;;;;;;;1999.90;999.90;;;;;;;7.26;52.46;99581.44;4932248;28;103103;-75
2021/11/02 14:06:10;;;;;;;1999.90;999.90;;;;;;;7.25;52.59;99590.25;4934642;28;98481;-73
2021/11/02 14:08:38;;;;;;;1999.90;999.90;;;;;;;7.22;52.45;99587.53;4930011;28;97213;-74
2021/11/02 14:11:21;;;;;;;1999.90;999.90;;;;;;;7.17;51.63;99589.22;4932272;28;98833;-75
2021/11/02 14:13:49;;;;;;;1999.90;999.90;;;;;;;7.15;52.59;99594.50;4930098;28;98442;-73
2021/11/02 14:16:31;;;;;;;1999.90;999.90;;;;;;;7.10;52.26;99590.00;4933724;28;97121;-74
2021/11/02 14:19:00;;;;;;;1999.90;999.90;;;;;;;7.10;52.31;99587.34;4943067;28;97848;-73
2021/11/02 14:21:51;;;;;;;1999.90;999.90;;;;;;;7.07;52.21;99588.19;4946696;28;101820;-73
2021/11/02 14:24:33;;;;;;;1999.90;999.90;;;;;;;7.08;52.16;99586.44;4937709;28;98997;-73
2021/11/02 14:27:03;;;;;;;1999.90;999.90;;;;;;;7.11;52.32;99587.38;4935094;28;98613;-74
2021/11/02 14:29:52;;;;;;;1999.90;999.90;;;;;;;7.10;51.95;99590.00;4938066;28;97779;-74
2021/11/02 14:32:46;;;;;;;1999.90;999.90;;;;;;;7.10;51.84;99590.00;4935782;28;98977;-73
2021/11/02 14:35:40;;;;;;;1999.90;999.90;;;;;;;7.11;52.24;99590.03;4937275;28;97781;-71
2021/11/02 14:38:09;;;;;;;1999.90;999.90;;;;;;;7.15;52.66;99590.94;4937556;28;97809;-72
2021/11/02 14:40:38;;;;;;;1999.90;999.90;;;;;;;7.17;52.35;99589.22;4936606;28;97130;-72
2021/11/02 14:43:25;;;;;;;1999.90;999.90;;;;;;;7.14;52.39;99587.41;4935168;28;98691;-73
2021/11/02 14:45:55;;;;;;;1999.90;999.90;;;;;;;7.17;52.56;99592.78;4933611;28;100253;-73
2021/11/02 14:48:47;;;;;;;1999.90;999.90;;;;;;;7.14;52.27;99599.78;4934840;28;97474;-73
2021/11/02 14:51:27;;;;;;;1999.90;999.90;;;;;;;7.16;52.32;99592.75;4921896;28;97900;-73
2021/11/02 14:53:57;;;;;;;1999.90;999.90;;;;;;;7.17;52.69;99587.47;4936408;28;98408;-73
2021/11/02 14:56:35;;;;;;;1999.90;999.90;;;;;;;7.16;52.63;99595.41;4936376;28;98648;-74
2021/11/02 14:59:05;;;;;;;1999.90;999.90;;;;;;;7.17;52.69;99592.78;4942018;28;98197;-73
2021/11/02 15:02:04;;;;;;;1999.90;999.90;;;;;;;7.16;52.49;99590.09;4936198;28;97633;-74
2021/11/02 15:04:32;;;;;;;1999.90;999.90;;;;;;;7.17;52.44;99592.78;4946143;28;100710;-73
2021/11/02 15:07:02;;;;;;;1999.90;999.90;;;;;;;7.17;52.33;99594.50;4937263;28;97697;-72
2021/11/02 15:09:31;;;;;;;1999.90;999.90;;;;;;;7.16;52.61;99596.25;4940922;28;97399;-74
2021/11/02 15:12:00;;;;;;;1999.90;999.90;;;;;;;7.15;52.44;99583.00;4932444;28;96842;-73
2021/11/02 15:14:31;;;;;;;1999.90;999.90;;;;;;;7.13;52.79;99588.28;4941830;28;98207;-75
2021/11/02 15:17:01;;;;;;;1999.90;999.90;;;;;;;7.12;52.33;99601.50;4935236;28;101011;-75
2021/11/02 15:19:43;;;;;;;1999.90;999.90;;;;;;;7.10;52.68;99597.94;4933848;28;97152;-75
2021/11/02 15:22:12;;;;;;;1999.90;999.90;;;;;;;7.09;52.76;99597.03;4938678;28;97652;-74
2021/11/02 15:24:41;;;;;;;1999.90;999.90;;;;;;;7.09;52.50;99596.16;4939921;28;98742;-75
2021/11/02 15:27:11;;;;;;;1999.90;999.90;;;;;;;7.07;52.73;99600.53;4939981;28;96570;-74
2021/11/02 15:29:44;;;;;;;1999.90;999.90;;;;;;;7.04;52.92;99596.06;4934683;28;97850;-75
2021/11/02 15:32:13;;;;;;;1999.90;999.90;;;;;;;7.04;52.88;99598.72;4936359;28;97124;-74
2021/11/02 15:34:43;;;;;;;1999.90;999.90;;;;;;;7.02;52.53;99595.16;4935082;28;98151;-74
2021/11/02 15:37:13;;;;;;;1999.90;999.90;;;;;;;7.03;52.70;99601.34;4936880;28;98189;-75
2021/11/02 15:39:53;;;;;;;1999.90;999.90;;;;;;;7.01;52.46;99600.44;4939997;28;97631;-74
2021/11/02 15:42:27;;;;;;;1999.90;999.90;;;;;;;7.00;52.67;99601.28;4940805;28;97585;-75
2021/11/02 15:44:58;;;;;;;1999.90;999.90;;;;;;;6.99;52.70;99602.16;4939541;28;98705;-73
2021/11/02 15:47:27;;;;;;;1999.90;999.90;;;;;;;6.99;52.83;99599.50;4939411;28;99380;-73
2021/11/02 15:50:03;;;;;;;1999.90;999.90;;;;;;;6.99;52.95;99602.16;4940333;28;97331;-75
2021/11/02 15:52:32;;;;;;;1999.90;999.90;;;;;;;6.96;52.95;99604.75;4926197;28;97530;-73
2021/11/02 15:55:03;;;;;;;1999.90;999.90;;;;;;;6.97;52.72;99603.88;4937297;28;100627;-73
2021/11/02 15:57:38;;;;;;;1999.90;999.90;;;;;;;6.95;52.65;99605.59;4941190;28;98016;-73
2021/11/02 16:00:09;;;;;;;1999.90;999.90;;;;;;;6.94;52.82;99599.41;4926599;28;97611;-73
2021/11/02 16:02:39;;;;;;;1999.90;999.90;;;;;;;6.92;53.00;99611.75;4939856;28;96971;-73
2021/11/02 16:05:08;;;;;;;1999.90;999.90;;;;;;;6.93;53.11;99604.69;4928955;28;96845;-75
2021/11/02 16:07:36;;;;;;;1999.90;999.90;;;;;;;6.90;52.87;99613.47;4940176;28;98770;-73